Latest Weather Observations for Hamilton

IDV60801

Issued at 1:02 pm EST Thursday 27 April 2017 (issued every 30 minutes, with the page automatically refreshed every 10 minutes)

About weather observations | Map of weather stations | Latest weather observations for VIC | Other Formats
Station Details ID: 090173 Name: HAMILTON AIRPORT Lat: -37.65 Lon: 142.06 Height: 241.1 m
Data from the previous 72 hours. | See also: Recent months at Hamilton
Date/Time
EST
Temp
°C
App
Temp
°C
Dew
Point
°C
Rel
Hum
%
Delta-T
°C
Wind Press
QNH
hPa
Press
MSL
hPa
Rain since
9am
mm
Dir  Spd
km/h
Gust
km/h
Spd
kts
Gust
kts
27/01:00pm 11.1 7.0 8.0 81 1.5 WSW 19 24 10 13 1024.9 1024.7 0.0
27/12:30pm 12.0 7.7 7.1 72 2.4 W 19 26 10 14 1025.0 1024.8 0.0
27/12:00pm 12.4 9.0 7.7 73 2.3 W 15 22 8 12 1025.3 1025.1 0.0
27/11:30am 11.5 7.3 7.6 77 1.9 WSW 19 22 10 12 1025.5 1025.3 0.0
27/11:00am 11.7 7.8 7.2 74 2.2 WSW 17 24 9 13 1025.5 1025.3 0.0
27/10:30am 11.1 7.5 6.8 75 2.1 W 15 20 8 11 1025.3 1025.1 0.0
27/10:00am 10.2 6.4 7.4 83 1.3 WSW 17 20 9 11 1025.3 1025.1 0.0
27/09:30am 9.2 6.1 7.3 88 0.9 W 13 19 7 10 1025.6 1025.4 0.0
27/09:00am 7.7 4.4 6.5 92 0.6 W 13 17 7 9 1025.6 1025.4 1.6
27/08:30am 6.1 3.3 5.1 93 0.4 W 9 11 5 6 1025.3 1025.1 1.6
27/08:00am 4.2 1.4 3.2 93 0.4 WNW 7 9 4 5 1024.8 1024.6 1.6
27/07:30am 4.4 1.6 3.4 93 0.4 WNW 7 9 4 5 1024.5 1024.3 1.6
27/07:00am 4.7 2.2 3.5 92 0.5 W 6 7 3 4 1024.4 1024.2 1.6
27/06:30am 4.6 1.8 3.4 92 0.5 W 7 9 4 5 1024.2 1024.0 1.6
27/06:00am 5.3 2.3 4.0 91 0.6 W 9 13 5 7 1024.0 1023.8 1.6
27/05:30am 5.2 2.2 4.0 92 0.5 W 9 11 5 6 1023.6 1023.5 1.6
27/05:00am 4.4 1.6 3.2 92 0.5 W 7 9 4 5 1023.3 1023.2 1.6
27/04:30am 4.2 1.4 2.9 91 0.5 WSW 7 9 4 5 1023.3 1023.2 1.6
27/04:00am 4.4 0.8 3.2 92 0.5 W 11 15 6 8 1022.9 1022.8 1.6
27/03:30am 4.1 0.9 2.8 91 0.5 SW 9 13 5 7 1022.9 1022.8 1.6
27/03:00am 4.4 1.6 3.2 92 0.5 WSW 7 9 4 5 1023.0 1022.9 1.6
27/02:30am 4.4 1.2 3.2 92 0.5 W 9 11 5 6 1023.0 1022.9 1.6
27/02:00am 4.3 1.1 3.1 92 0.5 WSW 9 11 5 6 1022.9 1022.8 1.6
27/01:30am 4.7 1.6 3.5 92 0.5 WSW 9 11 5 6 1022.8 1022.7 1.4
27/01:00am 4.9 1.8 3.7 92 0.5 W 9 9 5 5 1022.7 1022.6 1.4
27/12:30am 4.8 2.1 3.5 91 0.5 WSW 7 9 4 5 1022.7 1022.6 1.4
27/12:00am 4.8 2.1 3.5 91 0.5 WSW 7 9 4 5 1022.7 1022.6 1.4
 
Date/Time
EST
Temp
°C
App
Temp
°C
Dew
Point
°C
Rel
Hum
%
Delta-T
°C
Wind Press
QNH
hPa
Press
MSL
hPa
Rain since
9am
mm
Dir  Spd
km/h
Gust
km/h
Spd
kts
Gust
kts
26/11:30pm 5.3 2.2 3.8 90 0.6 SW 9 11 5 6 1022.6 1022.4 1.4
26/11:00pm 6.8 2.8 5.0 88 0.8 SSW 15 24 8 13 1022.4 1022.2 1.4
26/10:30pm 6.8 3.2 4.8 87 0.9 SSW 13 17 7 9 1022.3 1022.1 1.2
26/10:00pm 6.7 2.3 4.7 87 0.9 SSW 17 22 9 12 1022.3 1022.1 1.2
26/09:30pm 5.6 2.9 3.9 89 0.7 SW 7 9 4 5 1022.0 1021.8 1.0
26/09:00pm 5.7 2.7 3.9 88 0.8 SW 9 11 5 6 1021.7 1021.5 1.0
26/08:30pm 5.9 3.0 4.5 91 0.6 SW 9 15 5 8 1021.7 1021.5 1.0
26/08:00pm 5.6 2.6 3.9 89 0.7 WSW 9 9 5 5 1021.3 1021.1 1.0
26/07:30pm 5.8 2.4 4.0 88 0.8 SW 11 13 6 7 1021.3 1021.1 1.0
26/07:00pm 6.5 3.2 4.5 87 0.9 SW 11 15 6 8 1021.0 1020.8 1.0
26/06:30pm 6.8 2.7 4.1 83 1.2 WSW 15 17 8 9 1020.4 1020.2 1.0
26/06:00pm 7.8 3.3 4.4 79 1.5 WSW 17 20 9 11 1020.1 1019.9 1.0
26/05:30pm 8.2 2.7 4.2 76 1.8 SW 22 32 12 17 1019.7 1019.5 1.0
26/05:00pm 8.4 2.5 3.8 73 2.0 SW 24 37 13 20 1019.2 1019.1 1.0
26/04:30pm 8.6 2.3 3.8 72 2.1 SW 26 37 14 20 1019.2 1019.1 1.0
26/04:00pm 8.3 1.8 4.9 79 1.5 SW 28 35 15 19 1018.7 1018.5 1.0
26/03:42pm 8.8 1.3 4.6 75 1.9 SSW 33 52 18 28 1018.5 1018.3 0.8
26/03:30pm 10.3 3.1 4.9 69 2.5 SSW 32 43 17 23 1018.2 1018.0 0.8
26/03:00pm 9.0 3.4 5.2 77 1.7 SSW 24 32 13 17 1018.2 1018.0 0.8
26/02:32pm 8.3 0.4 4.3 76 1.8 SW 35 54 19 29 1018.3 1018.1 0.6
26/02:30pm 8.2 -0.5 3.9 74 1.9 SSW 39 54 21 29 1018.3 1018.1 0.6
26/02:21pm 10.4 2.2 2.5 58 3.4 SSW 35 54 19 29 1017.9 1017.7 0.2
26/02:00pm 10.6 2.9 2.4 57 3.5 SSW 32 46 17 25 1017.8 1017.6 0.2
26/01:30pm 11.3 3.7 3.1 57 3.6 SSW 32 43 17 23 1017.7 1017.5 0.2
26/01:10pm 9.7 2.5 3.2 64 2.8 SSW 30 52 16 28 1017.5 1017.3 0.2
26/01:00pm 9.9 4.7 5.5 74 2.0 SSW 22 26 12 14 1017.7 1017.5 0.2
26/12:47pm 7.3 -0.1 3.9 79 1.5 S 32 52 17 28 1017.8 1017.6 0.2
26/12:42pm 6.7 -2.5 3.5 80 1.4 SSW 41 74 22 40 1017.9 1017.7 0.2
26/12:36pm 9.3 1.2 3.5 67 2.5 SSW 35 74 19 40 1017.7 1017.5 0.2
26/12:30pm 11.1 3.6 4.6 64 3.0 S 33 54 18 29 1017.5 1017.3 0.2
26/12:22pm 9.8 2.1 3.3 64 2.9 S 33 54 18 29 1017.4 1017.2 0.2
26/12:00pm 11.4 1.3 0.5 47 4.5 SSW 43 57 23 31 1017.2 1017.0 0.2
26/11:40am 11.7 3.2 3.0 55 3.9 SSW 37 56 20 30 1017.1 1016.9 0.2
26/11:30am 11.2 1.8 2.2 54 3.9 S 41 57 22 31 1016.9 1016.7 0.2
26/11:14am 10.0 3.4 4.4 68 2.5 S 28 54 15 29 1016.8 1016.6 0.2
26/11:00am 9.5 3.8 5.1 74 2.0 SSW 24 33 13 18 1016.6 1016.4 0.2
26/10:30am 9.0 2.3 5.4 78 1.6 S 30 46 16 25 1016.4 1016.2 0.0
26/10:28am 9.4 2.9 4.8 73 2.1 S 28 43 15 23 1016.3 1016.1 0.0
26/10:00am 9.1 4.8 5.1 76 1.8 S 17 22 9 12 1015.9 1015.7 0.0
26/09:30am 8.0 3.7 5.1 82 1.3 S 17 24 9 13 1015.4 1015.1 0.0
26/09:00am 7.8 3.4 4.9 82 1.3 S 17 22 9 12 1014.9 1014.7 11.4
26/08:30am 7.5 1.7 4.6 82 1.3 SSW 24 37 13 20 1014.3 1014.1 11.4
26/08:00am 6.5 2.5 4.7 88 0.8 SW 15 20 8 11 1013.3 1013.1 11.4
26/07:30am 5.0 1.9 3.8 92 0.5 WSW 9 11 5 6 1012.6 1012.4 11.2
26/07:00am 5.2 2.5 3.5 89 0.7 SW 7 11 4 6 1012.0 1011.7 11.2
26/06:30am 5.7 1.0 3.4 85 1.0 SW 17 22 9 12 1011.6 1011.3 11.2
26/06:14am 6.0 -0.6 4.3 89 0.7 SW 28 50 15 27 1011.4 1011.1 11.2
26/06:10am 6.0 1.0 4.8 92 0.5 SW 20 50 11 27 1011.5 1011.2 11.2
26/06:00am 5.9 2.2 4.7 92 0.5 SW 13 15 7 8 1011.1 1010.8 11.2
26/05:30am 6.4 2.0 5.0 91 0.6 SSW 17 22 9 12 1010.1 1009.9 11.2
26/05:00am 7.0 1.8 5.6 91 0.6 SW 22 28 12 15 1009.7 1009.5 10.8
26/04:55am 6.9 1.3 5.5 91 0.6 SW 24 32 13 17 1009.6 1009.4 10.8
26/04:52am 6.9 0.9 5.5 91 0.6 SW 26 32 14 17 1009.6 1009.4 10.8
26/04:42am 6.7 0.0 5.5 92 0.5 SW 30 43 16 23 1009.4 1009.2 10.8
26/04:40am 6.6 0.2 5.4 92 0.5 SW 28 43 15 23 1009.5 1009.3 10.6
26/04:30am 7.5 3.4 6.4 93 0.5 WSW 17 22 9 12 1009.0 1008.8 9.8
26/04:27am 7.5 3.4 6.4 93 0.5 WSW 17 22 9 12 1009.0 1008.8 9.8
26/04:00am 7.1 2.5 5.7 91 0.6 SSW 19 22 10 12 1008.5 1008.2 9.2
26/03:50am 7.1 1.5 5.6 90 0.7 S 24 30 13 16 1008.3 1008.0 8.6
26/03:32am 7.5 0.5 6.0 90 0.7 SSW 32 50 17 27 1008.2 1007.9 7.6
26/03:30am 7.7 0.7 6.2 90 0.7 SSW 32 43 17 23 1008.2 1007.9 7.6
26/03:00am 8.1 2.4 6.7 91 0.7 SW 26 37 14 20 1007.7 1007.4 7.6
26/02:51am 8.0 1.5 6.6 91 0.7 SW 30 37 16 20 1007.4 1007.1 7.6
26/02:38am 8.1 2.1 6.9 92 0.6 WSW 28 46 15 25 1007.1 1006.8 7.4
26/02:37am 8.2 2.9 7.0 92 0.6 WSW 24 46 13 25 1007.1 1006.8 7.4
26/02:30am 8.6 5.2 7.5 93 0.5 W 15 20 8 11 1007.1 1006.8 7.0
26/02:06am 8.3 4.4 7.1 92 0.6 WSW 17 20 9 11 1006.8 1006.5 7.0
26/02:00am 8.3 4.4 7.1 92 0.6 WSW 17 24 9 13 1006.7 1006.4 7.0
26/01:30am 8.2 4.6 6.8 91 0.7 W 15 19 8 10 1006.7 1006.4 7.0
26/01:00am 8.4 3.9 7.0 91 0.7 WSW 20 37 11 20 1006.8 1006.5 7.0
26/12:30am 8.9 1.3 7.7 92 0.6 SW 37 50 20 27 1007.2 1006.9 5.4
26/12:00am 9.7 2.3 8.3 91 0.7 SW 37 50 20 27 1006.2 1006.0 3.8
 
Date/Time
EST
Temp
°C
App
Temp
°C
Dew
Point
°C
Rel
Hum
%
Delta-T
°C
Wind Press
QNH
hPa
Press
MSL
hPa
Rain since
9am
mm
Dir  Spd
km/h
Gust
km/h
Spd
kts
Gust
kts
25/11:56pm 9.8 2.8 8.4 91 0.7 SW 35 50 19 27 1006.2 1006.0 3.6
25/11:30pm 10.7 4.2 9.0 89 0.9 W 33 43 18 23 1006.1 1005.9 2.4
25/11:11pm 11.6 5.4 9.5 87 1.1 WNW 32 43 17 23 1005.9 1005.7 1.8
25/11:00pm 12.0 6.9 9.2 83 1.4 NW 26 35 14 19 1005.9 1005.7 1.4
25/10:30pm 12.0 6.6 9.4 84 1.3 NW 28 43 15 23 1006.1 1005.9 1.4
25/10:00pm 12.1 7.5 9.7 85 1.2 NW 24 35 13 19 1006.4 1006.2 1.4
25/09:30pm 12.2 7.7 9.9 86 1.2 NW 24 32 13 17 1006.7 1006.4 1.4
25/09:00pm 12.3 7.8 10.0 86 1.2 WNW 24 33 13 18 1006.9 1006.6 1.4
25/08:30pm 12.5 7.7 10.2 86 1.2 WNW 26 39 14 21 1007.1 1006.8 1.4
25/08:00pm 12.8 8.4 10.3 85 1.3 WNW 24 33 13 18 1007.4 1007.1 1.4
25/07:30pm 12.6 9.0 10.7 88 1.0 NW 20 32 11 17 1007.5 1007.2 1.4
25/07:00pm 12.5 9.5 10.7 89 1.0 NW 17 20 9 11 1007.5 1007.2 1.4
25/06:30pm 12.6 9.6 10.7 88 1.0 W 17 20 9 11 1007.4 1007.1 1.4
25/06:00pm 12.9 9.1 11.0 88 1.0 W 22 32 12 17 1007.4 1007.1 1.4
25/05:30pm 12.7 8.4 10.9 89 1.0 W 24 33 13 18 1007.3 1007.0 1.4
25/05:08pm 12.5 7.8 10.7 89 0.9 W 26 39 14 21 1007.4 1007.1 1.4
25/05:00pm 12.7 6.7 10.8 88 1.0 WNW 33 50 18 27 1007.4 1007.1 1.4
25/04:54pm 13.0 6.9 10.4 84 1.4 WNW 33 50 18 27 1007.4 1007.1 1.0
25/04:49pm 14.9 9.9 10.9 77 2.1 NW 28 46 15 25 1007.5 1007.2 0.6
25/04:30pm 16.7 12.2 10.1 65 3.5 NW 24 32 13 17 1006.7 1006.4 0.0
25/04:00pm 17.5 13.9 10.6 64 3.7 NW 20 30 11 16 1006.7 1006.4 0.0
25/03:30pm 17.9 14.8 11.5 66 3.5 WNW 19 24 10 13 1007.1 1006.8 0.0
25/03:00pm 17.3 14.2 10.4 64 3.7 WNW 17 22 9 12 1007.2 1006.9 0.0
25/02:30pm 18.3 14.9 10.7 61 4.1 WNW 19 24 10 13 1007.6 1007.3 0.0
25/02:00pm 17.2 15.0 10.8 66 3.5 W 13 19 7 10 1008.0 1007.7 0.0
25/01:30pm 17.1 13.5 10.0 63 3.8 WNW 19 24 10 13 1008.6 1008.4 0.0
25/01:00pm 15.8 13.2 10.8 72 2.7 W 15 19 8 10 1009.2 1009.0 0.0
25/12:30pm 17.1 14.8 11.6 70 3.0 W 15 22 8 12 1009.6 1009.4 0.0
25/12:00pm 16.6 14.8 12.0 74 2.5 WSW 13 17 7 9 1010.0 1009.8 0.0
25/11:38am 15.7 13.4 11.9 78 2.1 WSW 15 20 8 11 1010.1 1009.9 0.0
25/11:30am 15.5 13.9 11.5 77 2.2 SW 11 17 6 9 1010.1 1009.9 0.0
25/11:00am 14.8 12.5 11.9 83 1.6 SW 15 20 8 11 1010.5 1010.3 0.0
25/10:30am 14.0 12.2 12.0 88 1.1 WSW 13 19 7 10 1010.7 1010.5 0.0
25/10:00am 13.6 11.5 12.3 92 0.7 SW 15 19 8 10 1010.9 1010.6 0.0
25/09:30am 13.5 11.5 12.7 95 0.4 SW 15 19 8 10 1010.9 1010.6 0.0
25/09:00am 13.3 11.3 12.7 96 0.3 WSW 15 20 8 11 1011.0 1010.7 40.0
25/08:30am 13.1 11.0 12.5 96 0.3 WSW 15 19 8 10 1010.7 1010.5 40.0
25/08:00am 12.8 10.6 12.2 96 0.3 WSW 15 19 8 10 1010.4 1010.2 40.0
25/07:30am 12.8 10.7 12.3 97 0.3 WSW 15 19 8 10 1010.2 1010.0 40.0
25/07:00am 12.9 10.8 12.4 97 0.3 WSW 15 20 8 11 1010.0 1009.8 40.0
25/06:30am 13.0 10.6 12.5 97 0.3 WSW 17 20 9 11 1009.8 1009.6 40.0
25/06:00am 13.1 10.7 12.6 97 0.3 WSW 17 20 9 11 1009.6 1009.4 40.0
25/05:39am 13.1 10.3 12.6 97 0.3 WSW 19 24 10 13 1009.5 1009.3 40.0
25/05:30am 13.1 11.1 12.6 97 0.3 WSW 15 19 8 10 1009.4 1009.2 40.0
25/05:00am 13.2 10.8 12.7 97 0.3 WSW 17 22 9 12 1009.2 1009.0 39.6
25/04:30am 13.2 11.2 12.7 97 0.3 WSW 15 20 8 11 1009.2 1009.0 39.6
25/04:00am 13.2 11.6 12.7 97 0.3 WSW 13 17 7 9 1009.2 1009.0 39.6
25/03:30am 13.3 12.1 12.7 96 0.3 WSW 11 15 6 8 1009.3 1009.1 39.6
25/03:00am 13.3 12.1 12.7 96 0.3 WSW 11 17 6 9 1009.4 1009.2 39.6
25/02:30am 13.4 11.4 12.8 96 0.3 SW 15 20 8 11 1009.3 1009.1 39.6
25/02:00am 13.6 12.5 13.0 96 0.3 SW 11 13 6 7 1009.5 1009.3 39.6
25/01:51am 13.6 12.5 13.0 96 0.3 SW 11 13 6 7 1009.4 1009.2 39.6
25/01:30am 13.7 13.3 13.1 96 0.3 WSW 7 9 4 5 1009.8 1009.6 39.6
25/01:00am 13.7 13.0 13.1 96 0.3 SW 9 13 5 7 1010.0 1009.8 39.6
25/12:30am 13.8 13.1 13.2 96 0.3 SSW 9 13 5 7 1010.1 1009.9 39.6
25/12:00am 14.0 13.7 13.2 95 0.4 SW 7 11 4 6 1010.4 1010.2 39.6
 
Date/Time
EST
Temp
°C
App
Temp
°C
Dew
Point
°C
Rel
Hum
%
Delta-T
°C
Wind Press
QNH
hPa
Press
MSL
hPa
Rain since
9am
mm
Dir  Spd
km/h
Gust
km/h
Spd
kts
Gust
kts
24/11:51pm 14.1 13.4 13.3 95 0.4 SW 9 13 5 7 1010.6 1010.4 39.6
24/11:40pm 14.1 13.8 13.3 95 0.4 WNW 7 13 4 7 1010.7 1010.5 39.2
24/11:35pm 14.2 13.6 13.4 95 0.4 NW 9 13 5 7 1010.7 1010.5 38.6
24/11:30pm 14.2 13.6 13.4 95 0.4 NNE 9 11 5 6 1010.9 1010.6 38.4
24/11:17pm 14.1 13.4 13.3 95 0.4 NNE 9 13 5 7 1010.9 1010.6 37.6
24/11:04pm 14.1 13.4 13.3 95 0.4 NE 9 13 5 7 1011.0 1010.7 36.4
24/11:00pm 14.1 13.1 13.3 95 0.4 NE 11 13 6 7 1011.1 1010.8 36.4
24/10:48pm 14.0 13.3 13.2 95 0.4 ENE 9 13 5 7 1011.2 1010.9 36.4
24/10:34pm 13.9 13.2 13.1 95 0.4 E 9 13 5 7 1011.3 1011.0 35.2
24/10:30pm 13.9 13.2 13.1 95 0.4 E 9 13 5 7 1011.4 1011.1 35.2
24/10:00pm 13.9 12.4 13.1 95 0.4 ENE 13 17 7 9 1011.8 1011.5 35.0
24/09:30pm 13.8 12.0 13.2 96 0.3 ENE 15 20 8 11 1012.0 1011.7 34.8
24/09:14pm 13.8 12.0 13.2 96 0.3 ENE 15 20 8 11 1012.3 1012.1 34.8
24/09:00pm 13.9 11.7 13.3 96 0.3 ENE 17 22 9 12 1012.3 1012.1 34.2
24/08:46pm 13.9 12.9 13.3 96 0.3 E 11 15 6 8 1012.8 1012.6 29.2
24/08:30pm 13.9 12.5 13.3 96 0.3 E 13 15 7 8 1012.7 1012.5 27.8
24/08:20pm 13.8 12.3 13.2 96 0.3 E 13 17 7 9 1012.9 1012.7 27.8
24/08:00pm 13.8 12.0 13.2 96 0.3 ENE 15 20 8 11 1013.1 1012.9 27.8
24/07:44pm 13.8 11.9 13.0 95 0.4 E 15 20 8 11 1013.3 1013.1 27.6
24/07:41pm 13.8 11.9 13.0 95 0.4 E 15 19 8 10 1013.4 1013.2 27.2
24/07:30pm 13.8 12.3 13.0 95 0.4 ESE 13 17 7 9 1013.3 1013.1 27.0
24/07:29pm 13.9 12.4 13.1 95 0.4 ESE 13 17 7 9 1013.3 1013.1 27.0
24/07:00pm 13.9 12.4 13.1 95 0.4 SE 13 17 7 9 1013.4 1013.2 25.4
24/06:56pm 13.9 12.4 13.1 95 0.4 SE 13 17 7 9 1013.3 1013.1 25.2
24/06:45pm 14.1 12.3 13.3 95 0.4 ESE 15 17 8 9 1013.4 1013.2 24.4
24/06:30pm 14.1 12.7 13.3 95 0.4 ESE 13 17 7 9 1013.6 1013.4 23.6
24/06:00pm 14.2 12.0 13.4 95 0.4 SE 17 20 9 11 1013.4 1013.2 21.8
24/05:35pm 14.4 13.5 13.6 95 0.5 SSE 11 15 6 8 1013.6 1013.4 20.0
24/05:30pm 14.4 13.5 13.6 95 0.5 SE 11 15 6 8 1013.8 1013.6 19.0
24/05:24pm 14.5 13.2 13.7 95 0.5 SE 13 15 7 8 1013.7 1013.5 18.2
24/05:21pm 14.6 13.3 13.8 95 0.5 SSE 13 15 7 8 1013.8 1013.6 18.2
24/05:00pm 14.8 13.2 14.0 95 0.5 SSW 15 17 8 9 1014.6 1014.4 15.2
24/04:30pm 15.0 14.2 14.0 94 0.6 SSW 11 13 6 7 1014.2 1014.0 11.2
24/04:24pm 14.9 13.7 13.9 94 0.6 SSW 13 20 7 11 1014.0 1013.8 10.4
24/04:00pm 15.1 13.6 14.1 94 0.6 SE 15 20 8 11 1013.8 1013.6 9.0
24/03:30pm 15.3 13.8 14.3 94 0.6 SE 15 19 8 10 1013.9 1013.7 9.0
24/03:21pm 15.2 13.7 14.2 94 0.6 SE 15 19 8 10 1014.2 1014.0 9.0
24/03:00pm 15.2 13.7 14.2 94 0.6 SE 15 19 8 10 1014.6 1014.4 9.0
24/02:53pm 15.3 14.2 14.3 94 0.6 SE 13 15 7 8 1014.7 1014.5 9.0
24/02:52pm 15.4 14.3 14.4 94 0.6 ESE 13 15 7 8 1014.7 1014.5 9.0
24/02:45pm 15.3 14.2 14.3 94 0.6 ESE 13 15 7 8 1014.9 1014.7 9.0
24/02:30pm 15.1 14.3 14.1 94 0.6 ESE 11 13 6 7 1015.4 1015.1 9.0
24/02:16pm 15.0 14.9 13.9 93 0.6 SE 7 7 4 4 1015.8 1015.6 8.8
24/02:00pm 15.0 14.5 13.9 93 0.6 SE 9 11 5 6 1016.2 1016.0 6.2
24/01:47pm 15.0 15.9 13.9 93 0.6 SE 2 6 1 3 1016.4 1016.2 4.0
24/01:30pm 15.2 14.8 14.1 93 0.6 SSE 9 9 5 5 1016.4 1016.2 2.2
24/01:21pm 15.2 14.7 13.9 92 0.7 S 9 13 5 7 1016.6 1016.4 1.6

Other Formats:

Comma delimited format used in spreadsheet applications
http://www.bom.gov.au/fwo/IDV60801/IDV60801.94829.axf

JavaScript Object Notation format (JSON) in row-major order
http://www.bom.gov.au/fwo/IDV60801/IDV60801.94829.json